sensor_id;sensor_type;location;lat;lon;timestamp;P1;durP1;ratioP1;P2;durP2;ratioP2
5612;SDS011;63463;53.586;9.928;2024-01-30T00:01:18;213.47;;;37.73;;
5612;SDS011;63463;53.586;9.928;2024-01-30T00:03:44;197.27;;;36.63;;
5612;SDS011;63463;53.586;9.928;2024-01-30T00:06:10;196.87;;;35.70;;
5612;SDS011;63463;53.586;9.928;2024-01-30T00:08:36;202.87;;;37.00;;
5612;SDS011;63463;53.586;9.928;2024-01-30T00:11:02;203.87;;;36.83;;
5612;SDS011;63463;53.586;9.928;2024-01-30T00:13:28;198.93;;;36.90;;
5612;SDS011;63463;53.586;9.928;2024-01-30T00:15:54;204.23;;;36.63;;
5612;SDS011;63463;53.586;9.928;2024-01-30T00:18:20;196.70;;;37.07;;
5612;SDS011;63463;53.586;9.928;2024-01-30T00:20:46;208.43;;;38.03;;
5612;SDS011;63463;53.586;9.928;2024-01-30T00:23:12;198.37;;;36.50;;
5612;SDS011;63463;53.586;9.928;2024-01-30T00:25:38;198.47;;;36.67;;
5612;SDS011;63463;53.586;9.928;2024-01-30T00:28:04;199.27;;;36.70;;
5612;SDS011;63463;53.586;9.928;2024-01-30T00:30:30;202.57;;;37.13;;
5612;SDS011;63463;53.586;9.928;2024-01-30T00:32:56;201.07;;;36.87;;
5612;SDS011;63463;53.586;9.928;2024-01-30T00:35:22;201.27;;;36.67;;
5612;SDS011;63463;53.586;9.928;2024-01-30T00:37:48;195.50;;;35.13;;
5612;SDS011;63463;53.586;9.928;2024-01-30T00:40:14;204.57;;;36.87;;
5612;SDS011;63463;53.586;9.928;2024-01-30T00:42:41;201.90;;;37.50;;
5612;SDS011;63463;53.586;9.928;2024-01-30T00:45:11;197.67;;;36.87;;
5612;SDS011;63463;53.586;9.928;2024-01-30T00:47:37;201.77;;;37.17;;
5612;SDS011;63463;53.586;9.928;2024-01-30T00:50:03;199.27;;;37.10;;
5612;SDS011;63463;53.586;9.928;2024-01-30T00:52:29;196.83;;;35.70;;
5612;SDS011;63463;53.586;9.928;2024-01-30T00:54:55;198.70;;;36.10;;
5612;SDS011;63463;53.586;9.928;2024-01-30T00:57:21;207.53;;;38.00;;
5612;SDS011;63463;53.586;9.928;2024-01-30T00:59:46;233.07;;;37.67;;
5612;SDS011;63463;53.586;9.928;2024-01-30T01:02:12;202.97;;;37.83;;
5612;SDS011;63463;53.586;9.928;2024-01-30T01:04:40;204.00;;;37.10;;
5612;SDS011;63463;53.586;9.928;2024-01-30T01:07:06;198.87;;;35.90;;
5612;SDS011;63463;53.586;9.928;2024-01-30T01:09:32;195.87;;;35.33;;
5612;SDS011;63463;53.586;9.928;2024-01-30T01:11:57;199.10;;;37.17;;
5612;SDS011;63463;53.586;9.928;2024-01-30T01:14:23;202.50;;;37.03;;
5612;SDS011;63463;53.586;9.928;2024-01-30T01:16:50;201.50;;;36.77;;
5612;SDS011;63463;53.586;9.928;2024-01-30T01:19:16;201.67;;;37.67;;
5612;SDS011;63463;53.586;9.928;2024-01-30T01:21:42;205.83;;;38.13;;
5612;SDS011;63463;53.586;9.928;2024-01-30T01:24:08;203.97;;;38.80;;
5612;SDS011;63463;53.586;9.928;2024-01-30T01:26:34;200.83;;;39.70;;
5612;SDS011;63463;53.586;9.928;2024-01-30T01:29:00;205.27;;;38.33;;
5612;SDS011;63463;53.586;9.928;2024-01-30T01:31:26;204.30;;;38.60;;
5612;SDS011;63463;53.586;9.928;2024-01-30T01:33:54;204.90;;;37.97;;
5612;SDS011;63463;53.586;9.928;2024-01-30T01:36:20;213.83;;;38.97;;
5612;SDS011;63463;53.586;9.928;2024-01-30T01:38:46;207.53;;;38.33;;
5612;SDS011;63463;53.586;9.928;2024-01-30T01:41:12;202.30;;;38.83;;
5612;SDS011;63463;53.586;9.928;2024-01-30T01:43:38;203.40;;;39.30;;
5612;SDS011;63463;53.586;9.928;2024-01-30T01:46:04;212.10;;;38.90;;
5612;SDS011;63463;53.586;9.928;2024-01-30T01:48:30;202.70;;;37.40;;
5612;SDS011;63463;53.586;9.928;2024-01-30T01:50:57;198.57;;;36.97;;
5612;SDS011;63463;53.586;9.928;2024-01-30T01:53:23;217.50;;;35.90;;
5612;SDS011;63463;53.586;9.928;2024-01-30T01:55:49;199.27;;;37.80;;
5612;SDS011;63463;53.586;9.928;2024-01-30T01:58:15;203.83;;;37.27;;
5612;SDS011;63463;53.586;9.928;2024-01-30T02:00:41;197.30;;;37.17;;
5612;SDS011;63463;53.586;9.928;2024-01-30T02:03:08;206.70;;;37.63;;
5612;SDS011;63463;53.586;9.928;2024-01-30T02:05:37;201.80;;;37.93;;
5612;SDS011;63463;53.586;9.928;2024-01-30T02:08:03;198.77;;;36.73;;
5612;SDS011;63463;53.586;9.928;2024-01-30T02:10:29;198.97;;;35.67;;
5612;SDS011;63463;53.586;9.928;2024-01-30T02:12:55;199.50;;;36.50;;
5612;SDS011;63463;53.586;9.928;2024-01-30T02:15:21;201.67;;;37.80;;
5612;SDS011;63463;53.586;9.928;2024-01-30T02:17:47;198.03;;;37.10;;
5612;SDS011;63463;53.586;9.928;2024-01-30T02:20:13;196.53;;;36.60;;
5612;SDS011;63463;53.586;9.928;2024-01-30T02:22:39;198.50;;;37.27;;
5612;SDS011;63463;53.586;9.928;2024-01-30T02:25:05;197.07;;;36.33;;
5612;SDS011;63463;53.586;9.928;2024-01-30T02:27:31;205.70;;;38.00;;
5612;SDS011;63463;53.586;9.928;2024-01-30T02:29:57;202.83;;;37.70;;
5612;SDS011;63463;53.586;9.928;2024-01-30T02:32:26;201.83;;;37.83;;
5612;SDS011;63463;53.586;9.928;2024-01-30T02:34:52;198.47;;;36.80;;
5612;SDS011;63463;53.586;9.928;2024-01-30T02:37:18;199.63;;;38.20;;
5612;SDS011;63463;53.586;9.928;2024-01-30T02:39:44;201.23;;;36.97;;
5612;SDS011;63463;53.586;9.928;2024-01-30T02:42:10;197.40;;;37.40;;
5612;SDS011;63463;53.586;9.928;2024-01-30T02:44:36;206.27;;;38.40;;
5612;SDS011;63463;53.586;9.928;2024-01-30T02:47:02;200.33;;;36.57;;
5612;SDS011;63463;53.586;9.928;2024-01-30T02:49:28;198.37;;;37.43;;
5612;SDS011;63463;53.586;9.928;2024-01-30T02:51:54;204.77;;;37.10;;
5612;SDS011;63463;53.586;9.928;2024-01-30T02:54:21;198.83;;;37.37;;
5612;SDS011;63463;53.586;9.928;2024-01-30T02:56:47;207.17;;;36.90;;
5612;SDS011;63463;53.586;9.928;2024-01-30T02:59:13;199.10;;;36.40;;
5612;SDS011;63463;53.586;9.928;2024-01-30T03:01:43;197.73;;;35.80;;
5612;SDS011;63463;53.586;9.928;2024-01-30T03:04:09;198.37;;;35.40;;
5612;SDS011;63463;53.586;9.928;2024-01-30T03:06:36;199.77;;;35.80;;
5612;SDS011;63463;53.586;9.928;2024-01-30T03:09:02;195.53;;;34.47;;
5612;SDS011;63463;53.586;9.928;2024-01-30T03:11:29;197.50;;;35.70;;
5612;SDS011;63463;53.586;9.928;2024-01-30T03:13:55;194.43;;;35.17;;
5612;SDS011;63463;53.586;9.928;2024-01-30T03:16:21;199.77;;;37.10;;
5612;SDS011;63463;53.586;9.928;2024-01-30T03:18:47;204.87;;;37.40;;
5612;SDS011;63463;53.586;9.928;2024-01-30T03:21:13;203.13;;;36.47;;
5612;SDS011;63463;53.586;9.928;2024-01-30T03:23:39;201.77;;;36.80;;
5612;SDS011;63463;53.586;9.928;2024-01-30T03:26:05;205.53;;;37.13;;
5612;SDS011;63463;53.586;9.928;2024-01-30T03:28:31;197.13;;;37.43;;
5612;SDS011;63463;53.586;9.928;2024-01-30T03:30:57;199.20;;;37.60;;
5612;SDS011;63463;53.586;9.928;2024-01-30T03:33:23;202.07;;;37.80;;
5612;SDS011;63463;53.586;9.928;2024-01-30T03:35:49;199.47;;;36.87;;
5612;SDS011;63463;53.586;9.928;2024-01-30T03:38:15;201.37;;;37.30;;
5612;SDS011;63463;53.586;9.928;2024-01-30T03:40:41;207.40;;;37.33;;
5612;SDS011;63463;53.586;9.928;2024-01-30T03:43:07;207.70;;;36.83;;
5612;SDS011;63463;53.586;9.928;2024-01-30T03:45:33;203.37;;;38.57;;
5612;SDS011;63463;53.586;9.928;2024-01-30T03:47:59;206.33;;;38.23;;
5612;SDS011;63463;53.586;9.928;2024-01-30T03:50:24;202.33;;;37.73;;
5612;SDS011;63463;53.586;9.928;2024-01-30T03:52:50;198.53;;;36.57;;
5612;SDS011;63463;53.586;9.928;2024-01-30T03:55:16;201.37;;;37.57;;
5612;SDS011;63463;53.586;9.928;2024-01-30T03:57:42;201.73;;;37.53;;
5612;SDS011;63463;53.586;9.928;2024-01-30T04:00:08;200.67;;;38.10;;
5612;SDS011;63463;53.586;9.928;2024-01-30T04:02:34;203.63;;;37.77;;
5612;SDS011;63463;53.586;9.928;2024-01-30T04:05:00;208.90;;;38.80;;
5612;SDS011;63463;53.586;9.928;2024-01-30T04:07:26;199.80;;;37.87;;
5612;SDS011;63463;53.586;9.928;2024-01-30T04:09:52;203.17;;;37.70;;
5612;SDS011;63463;53.586;9.928;2024-01-30T04:12:18;201.60;;;38.63;;
5612;SDS011;63463;53.586;9.928;2024-01-30T04:14:44;201.73;;;38.47;;
5612;SDS011;63463;53.586;9.928;2024-01-30T04:17:10;200.50;;;38.63;;
5612;SDS011;63463;53.586;9.928;2024-01-30T04:19:39;204.77;;;41.17;;
5612;SDS011;63463;53.586;9.928;2024-01-30T04:22:05;205.27;;;39.60;;
5612;SDS011;63463;53.586;9.928;2024-01-30T04:24:31;207.90;;;40.90;;
5612;SDS011;63463;53.586;9.928;2024-01-30T04:26:57;207.00;;;38.17;;
5612;SDS011;63463;53.586;9.928;2024-01-30T04:29:23;201.83;;;38.07;;
5612;SDS011;63463;53.586;9.928;2024-01-30T04:31:49;199.47;;;38.30;;
5612;SDS011;63463;53.586;9.928;2024-01-30T04:34:15;203.60;;;38.40;;
5612;SDS011;63463;53.586;9.928;2024-01-30T04:36:43;202.50;;;39.07;;
5612;SDS011;63463;53.586;9.928;2024-01-30T04:39:10;210.37;;;39.73;;
5612;SDS011;63463;53.586;9.928;2024-01-30T04:41:37;206.77;;;39.30;;
5612;SDS011;63463;53.586;9.928;2024-01-30T04:44:03;199.53;;;38.67;;
5612;SDS011;63463;53.586;9.928;2024-01-30T04:46:29;203.73;;;38.50;;
5612;SDS011;63463;53.586;9.928;2024-01-30T04:48:55;205.10;;;38.57;;
5612;SDS011;63463;53.586;9.928;2024-01-30T04:51:21;211.40;;;39.37;;
5612;SDS011;63463;53.586;9.928;2024-01-30T04:53:47;202.87;;;38.80;;
5612;SDS011;63463;53.586;9.928;2024-01-30T04:56:13;199.67;;;36.60;;
5612;SDS011;63463;53.586;9.928;2024-01-30T04:58:39;208.63;;;39.77;;
5612;SDS011;63463;53.586;9.928;2024-01-30T05:01:05;206.00;;;39.57;;
5612;SDS011;63463;53.586;9.928;2024-01-30T05:03:34;206.20;;;39.37;;
5612;SDS011;63463;53.586;9.928;2024-01-30T05:06:00;204.67;;;42.47;;
5612;SDS011;63463;53.586;9.928;2024-01-30T05:08:26;202.17;;;37.87;;
5612;SDS011;63463;53.586;9.928;2024-01-30T05:10:52;203.63;;;37.40;;
5612;SDS011;63463;53.586;9.928;2024-01-30T05:13:18;199.23;;;37.03;;
5612;SDS011;63463;53.586;9.928;2024-01-30T05:15:44;200.57;;;37.03;;
5612;SDS011;63463;53.586;9.928;2024-01-30T05:18:10;200.50;;;38.70;;
5612;SDS011;63463;53.586;9.928;2024-01-30T05:20:35;200.63;;;38.70;;
5612;SDS011;63463;53.586;9.928;2024-01-30T05:23:01;213.57;;;40.20;;
5612;SDS011;63463;53.586;9.928;2024-01-30T05:25:27;204.83;;;39.27;;
5612;SDS011;63463;53.586;9.928;2024-01-30T05:27:53;206.70;;;37.70;;
5612;SDS011;63463;53.586;9.928;2024-01-30T05:30:20;209.87;;;40.60;;
5612;SDS011;63463;53.586;9.928;2024-01-30T05:32:46;204.23;;;38.80;;
5612;SDS011;63463;53.586;9.928;2024-01-30T05:35:12;202.00;;;39.33;;
5612;SDS011;63463;53.586;9.928;2024-01-30T05:37:38;202.47;;;38.17;;
5612;SDS011;63463;53.586;9.928;2024-01-30T05:40:04;209.87;;;40.90;;
5612;SDS011;63463;53.586;9.928;2024-01-30T05:42:30;209.57;;;45.87;;
5612;SDS011;63463;53.586;9.928;2024-01-30T05:44:56;202.80;;;38.80;;
5612;SDS011;63463;53.586;9.928;2024-01-30T05:47:22;206.80;;;39.40;;
5612;SDS011;63463;53.586;9.928;2024-01-30T05:49:48;204.57;;;39.13;;
5612;SDS011;63463;53.586;9.928;2024-01-30T05:52:14;208.57;;;40.43;;
5612;SDS011;63463;53.586;9.928;2024-01-30T05:54:41;200.73;;;37.50;;
5612;SDS011;63463;53.586;9.928;2024-01-30T05:57:07;205.87;;;38.70;;
5612;SDS011;63463;53.586;9.928;2024-01-30T05:59:33;213.07;;;39.47;;
5612;SDS011;63463;53.586;9.928;2024-01-30T06:02:01;199.57;;;37.60;;
5612;SDS011;63463;53.586;9.928;2024-01-30T06:04:27;208.57;;;39.30;;
5612;SDS011;63463;53.586;9.928;2024-01-30T06:06:56;208.17;;;40.17;;
5612;SDS011;63463;53.586;9.928;2024-01-30T06:09:22;211.83;;;37.83;;
5612;SDS011;63463;53.586;9.928;2024-01-30T06:11:47;204.47;;;39.30;;
5612;SDS011;63463;53.586;9.928;2024-01-30T06:14:13;205.70;;;40.23;;
5612;SDS011;63463;53.586;9.928;2024-01-30T06:16:39;207.30;;;38.20;;
5612;SDS011;63463;53.586;9.928;2024-01-30T06:19:05;204.77;;;37.43;;
5612;SDS011;63463;53.586;9.928;2024-01-30T06:21:31;209.97;;;39.13;;
5612;SDS011;63463;53.586;9.928;2024-01-30T06:24:01;204.47;;;36.90;;
5612;SDS011;63463;53.586;9.928;2024-01-30T06:26:27;208.23;;;40.30;;
5612;SDS011;63463;53.586;9.928;2024-01-30T06:28:53;205.30;;;38.67;;
5612;SDS011;63463;53.586;9.928;2024-01-30T06:31:19;211.30;;;41.97;;
5612;SDS011;63463;53.586;9.928;2024-01-30T06:33:49;243.32;;;70.70;;
5612;SDS011;63463;53.586;9.928;2024-01-30T06:36:15;214.73;;;43.40;;
5612;SDS011;63463;53.586;9.928;2024-01-30T06:38:41;213.47;;;43.13;;
5612;SDS011;63463;53.586;9.928;2024-01-30T06:41:07;207.57;;;40.80;;
5612;SDS011;63463;53.586;9.928;2024-01-30T06:43:33;206.43;;;40.30;;
5612;SDS011;63463;53.586;9.928;2024-01-30T06:46:00;228.10;;;63.37;;
5612;SDS011;63463;53.586;9.928;2024-01-30T06:48:26;208.67;;;38.57;;
5612;SDS011;63463;53.586;9.928;2024-01-30T06:50:54;212.00;;;39.63;;
5612;SDS011;63463;53.586;9.928;2024-01-30T06:56:26;208.27;;;37.30;;
5612;SDS011;63463;53.586;9.928;2024-01-30T06:58:52;207.50;;;39.40;;
5612;SDS011;63463;53.586;9.928;2024-01-30T07:01:18;204.30;;;39.20;;
5612;SDS011;63463;53.586;9.928;2024-01-30T07:03:44;213.70;;;40.03;;
5612;SDS011;63463;53.586;9.928;2024-01-30T07:06:10;207.53;;;39.00;;
5612;SDS011;63463;53.586;9.928;2024-01-30T07:08:36;204.03;;;38.20;;
5612;SDS011;63463;53.586;9.928;2024-01-30T07:11:04;204.53;;;36.80;;
5612;SDS011;63463;53.586;9.928;2024-01-30T07:13:30;208.53;;;37.37;;
5612;SDS011;63463;53.586;9.928;2024-01-30T07:15:56;204.27;;;37.47;;
5612;SDS011;63463;53.586;9.928;2024-01-30T07:18:22;210.90;;;38.27;;
5612;SDS011;63463;53.586;9.928;2024-01-30T07:20:48;202.47;;;39.43;;
5612;SDS011;63463;53.586;9.928;2024-01-30T07:23:15;207.20;;;38.03;;
5612;SDS011;63463;53.586;9.928;2024-01-30T07:25:43;212.90;;;38.97;;
5612;SDS011;63463;53.586;9.928;2024-01-30T07:28:08;212.23;;;39.37;;
5612;SDS011;63463;53.586;9.928;2024-01-30T07:30:35;204.60;;;38.60;;
5612;SDS011;63463;53.586;9.928;2024-01-30T07:33:01;219.17;;;39.67;;
5612;SDS011;63463;53.586;9.928;2024-01-30T07:35:27;203.73;;;36.83;;
5612;SDS011;63463;53.586;9.928;2024-01-30T07:37:53;204.27;;;37.53;;
5612;SDS011;63463;53.586;9.928;2024-01-30T07:40:19;212.23;;;39.07;;
5612;SDS011;63463;53.586;9.928;2024-01-30T07:42:45;203.97;;;38.20;;
5612;SDS011;63463;53.586;9.928;2024-01-30T07:45:11;205.63;;;37.47;;
5612;SDS011;63463;53.586;9.928;2024-01-30T07:47:37;204.67;;;38.47;;
5612;SDS011;63463;53.586;9.928;2024-01-30T07:50:03;205.20;;;37.07;;
5612;SDS011;63463;53.586;9.928;2024-01-30T07:52:29;208.20;;;38.30;;
5612;SDS011;63463;53.586;9.928;2024-01-30T07:54:55;207.70;;;36.80;;
5612;SDS011;63463;53.586;9.928;2024-01-30T07:57:21;201.87;;;36.63;;
5612;SDS011;63463;53.586;9.928;2024-01-30T07:59:47;209.50;;;35.97;;
5612;SDS011;63463;53.586;9.928;2024-01-30T08:02:13;203.07;;;36.90;;
5612;SDS011;63463;53.586;9.928;2024-01-30T08:04:39;216.67;;;38.70;;
5612;SDS011;63463;53.586;9.928;2024-01-30T08:07:05;216.00;;;39.33;;
5612;SDS011;63463;53.586;9.928;2024-01-30T08:09:31;212.97;;;40.17;;
5612;SDS011;63463;53.586;9.928;2024-01-30T08:11:57;204.50;;;37.57;;
5612;SDS011;63463;53.586;9.928;2024-01-30T08:14:23;200.57;;;37.27;;
5612;SDS011;63463;53.586;9.928;2024-01-30T08:16:49;204.23;;;38.03;;
5612;SDS011;63463;53.586;9.928;2024-01-30T08:19:15;211.93;;;38.17;;
5612;SDS011;63463;53.586;9.928;2024-01-30T08:21:41;205.87;;;39.60;;
5612;SDS011;63463;53.586;9.928;2024-01-30T08:24:07;198.70;;;37.47;;
5612;SDS011;63463;53.586;9.928;2024-01-30T08:26:33;209.07;;;39.10;;
5612;SDS011;63463;53.586;9.928;2024-01-30T08:29:00;196.77;;;35.57;;
5612;SDS011;63463;53.586;9.928;2024-01-30T08:31:26;203.37;;;36.90;;
5612;SDS011;63463;53.586;9.928;2024-01-30T08:33:52;212.87;;;39.33;;
5612;SDS011;63463;53.586;9.928;2024-01-30T08:36:19;205.07;;;37.20;;
5612;SDS011;63463;53.586;9.928;2024-01-30T08:38:45;200.03;;;37.70;;
5612;SDS011;63463;53.586;9.928;2024-01-30T08:41:11;201.10;;;39.80;;
5612;SDS011;63463;53.586;9.928;2024-01-30T08:43:36;195.13;;;34.03;;
5612;SDS011;63463;53.586;9.928;2024-01-30T08:46:03;202.00;;;36.10;;
5612;SDS011;63463;53.586;9.928;2024-01-30T08:48:29;203.83;;;37.50;;
5612;SDS011;63463;53.586;9.928;2024-01-30T08:50:54;199.67;;;35.10;;
5612;SDS011;63463;53.586;9.928;2024-01-30T08:53:20;200.97;;;35.93;;
5612;SDS011;63463;53.586;9.928;2024-01-30T08:55:46;199.87;;;36.20;;
5612;SDS011;63463;53.586;9.928;2024-01-30T08:58:12;198.27;;;34.90;;
5612;SDS011;63463;53.586;9.928;2024-01-30T09:00:38;203.20;;;35.00;;
5612;SDS011;63463;53.586;9.928;2024-01-30T09:03:04;199.30;;;34.40;;
5612;SDS011;63463;53.586;9.928;2024-01-30T09:05:30;202.33;;;36.20;;
5612;SDS011;63463;53.586;9.928;2024-01-30T09:07:56;211.50;;;35.10;;
5612;SDS011;63463;53.586;9.928;2024-01-30T09:10:22;202.57;;;36.00;;
5612;SDS011;63463;53.586;9.928;2024-01-30T09:12:48;198.77;;;35.47;;
5612;SDS011;63463;53.586;9.928;2024-01-30T09:15:14;195.43;;;33.40;;
5612;SDS011;63463;53.586;9.928;2024-01-30T09:17:40;196.17;;;33.90;;
5612;SDS011;63463;53.586;9.928;2024-01-30T09:20:06;203.77;;;35.00;;
5612;SDS011;63463;53.586;9.928;2024-01-30T09:22:32;199.30;;;34.80;;
5612;SDS011;63463;53.586;9.928;2024-01-30T09:24:58;199.83;;;35.37;;
5612;SDS011;63463;53.586;9.928;2024-01-30T09:27:24;200.33;;;33.70;;
5612;SDS011;63463;53.586;9.928;2024-01-30T09:29:50;200.50;;;30.97;;
5612;SDS011;63463;53.586;9.928;2024-01-30T09:32:16;199.47;;;35.33;;
5612;SDS011;63463;53.586;9.928;2024-01-30T09:34:42;196.33;;;34.20;;
5612;SDS011;63463;53.586;9.928;2024-01-30T09:37:08;195.47;;;33.83;;
5612;SDS011;63463;53.586;9.928;2024-01-30T09:39:34;198.70;;;32.13;;
5612;SDS011;63463;53.586;9.928;2024-01-30T09:42:02;188.40;;;32.33;;
5612;SDS011;63463;53.586;9.928;2024-01-30T09:44:31;188.70;;;31.57;;
5612;SDS011;63463;53.586;9.928;2024-01-30T09:46:58;191.60;;;32.17;;
5612;SDS011;63463;53.586;9.928;2024-01-30T09:49:28;190.60;;;32.30;;
5612;SDS011;63463;53.586;9.928;2024-01-30T09:51:55;189.90;;;32.97;;
5612;SDS011;63463;53.586;9.928;2024-01-30T09:54:21;190.73;;;31.77;;
5612;SDS011;63463;53.586;9.928;2024-01-30T09:56:47;195.20;;;30.30;;
5612;SDS011;63463;53.586;9.928;2024-01-30T09:59:13;187.70;;;29.97;;
5612;SDS011;63463;53.586;9.928;2024-01-30T10:01:39;187.40;;;31.50;;
5612;SDS011;63463;53.586;9.928;2024-01-30T10:04:05;192.57;;;32.90;;
5612;SDS011;63463;53.586;9.928;2024-01-30T10:06:31;182.90;;;28.63;;
5612;SDS011;63463;53.586;9.928;2024-01-30T10:08:57;186.30;;;30.73;;
5612;SDS011;63463;53.586;9.928;2024-01-30T10:11:23;181.30;;;28.73;;
5612;SDS011;63463;53.586;9.928;2024-01-30T10:13:49;186.00;;;29.00;;
5612;SDS011;63463;53.586;9.928;2024-01-30T10:16:15;181.07;;;28.00;;
5612;SDS011;63463;53.586;9.928;2024-01-30T10:18:41;183.47;;;28.70;;
5612;SDS011;63463;53.586;9.928;2024-01-30T10:21:08;179.53;;;25.63;;
5612;SDS011;63463;53.586;9.928;2024-01-30T10:23:35;190.43;;;27.47;;
5612;SDS011;63463;53.586;9.928;2024-01-30T10:26:02;182.87;;;25.63;;
5612;SDS011;63463;53.586;9.928;2024-01-30T10:28:28;177.33;;;25.40;;
5612;SDS011;63463;53.586;9.928;2024-01-30T10:30:58;179.60;;;26.10;;
5612;SDS011;63463;53.586;9.928;2024-01-30T10:33:25;182.03;;;26.57;;
5612;SDS011;63463;53.586;9.928;2024-01-30T10:35:52;176.73;;;25.50;;
5612;SDS011;63463;53.586;9.928;2024-01-30T10:38:19;174.20;;;25.60;;
5612;SDS011;63463;53.586;9.928;2024-01-30T10:40:45;177.73;;;25.30;;
5612;SDS011;63463;53.586;9.928;2024-01-30T10:43:13;187.23;;;26.50;;
5612;SDS011;63463;53.586;9.928;2024-01-30T10:45:41;173.30;;;27.73;;
5612;SDS011;63463;53.586;9.928;2024-01-30T10:48:10;174.17;;;25.70;;
5612;SDS011;63463;53.586;9.928;2024-01-30T10:50:37;176.57;;;26.07;;
5612;SDS011;63463;53.586;9.928;2024-01-30T10:53:04;173.47;;;25.90;;
5612;SDS011;63463;53.586;9.928;2024-01-30T10:55:30;173.57;;;26.60;;
5612;SDS011;63463;53.586;9.928;2024-01-30T10:57:57;177.87;;;26.67;;
5612;SDS011;63463;53.586;9.928;2024-01-30T11:00:24;175.07;;;25.80;;
5612;SDS011;63463;53.586;9.928;2024-01-30T11:02:51;173.03;;;26.10;;
5612;SDS011;63463;53.586;9.928;2024-01-30T11:05:24;172.87;;;27.30;;
5612;SDS011;63463;53.586;9.928;2024-01-30T11:07:51;176.20;;;24.77;;
5612;SDS011;63463;53.586;9.928;2024-01-30T11:10:17;175.37;;;24.03;;
5612;SDS011;63463;53.586;9.928;2024-01-30T11:12:43;168.63;;;22.90;;
5612;SDS011;63463;53.586;9.928;2024-01-30T11:15:12;169.80;;;22.93;;
5612;SDS011;63463;53.586;9.928;2024-01-30T11:20:11;176.17;;;24.10;;
5612;SDS011;63463;53.586;9.928;2024-01-30T11:22:37;179.93;;;23.90;;
5612;SDS011;63463;53.586;9.928;2024-01-30T11:25:04;178.20;;;23.90;;
5612;SDS011;63463;53.586;9.928;2024-01-30T11:27:30;176.20;;;23.93;;
5612;SDS011;63463;53.586;9.928;2024-01-30T11:30:05;176.60;;;23.10;;
5612;SDS011;63463;53.586;9.928;2024-01-30T11:32:32;178.90;;;23.73;;
5612;SDS011;63463;53.586;9.928;2024-01-30T11:34:58;168.43;;;24.53;;
5612;SDS011;63463;53.586;9.928;2024-01-30T11:37:25;173.07;;;23.60;;
5612;SDS011;63463;53.586;9.928;2024-01-30T11:39:53;171.00;;;24.30;;
5612;SDS011;63463;53.586;9.928;2024-01-30T11:42:19;166.53;;;23.40;;
5612;SDS011;63463;53.586;9.928;2024-01-30T11:44:48;183.07;;;22.37;;
5612;SDS011;63463;53.586;9.928;2024-01-30T11:47:14;162.07;;;22.17;;
5612;SDS011;63463;53.586;9.928;2024-01-30T11:49:40;166.17;;;23.43;;
5612;SDS011;63463;53.586;9.928;2024-01-30T11:52:06;169.47;;;23.60;;
5612;SDS011;63463;53.586;9.928;2024-01-30T11:54:32;164.27;;;23.00;;
5612;SDS011;63463;53.586;9.928;2024-01-30T11:56:58;164.87;;;23.30;;
5612;SDS011;63463;53.586;9.928;2024-01-30T11:59:24;167.90;;;23.57;;
5612;SDS011;63463;53.586;9.928;2024-01-30T12:01:51;165.07;;;23.73;;
5612;SDS011;63463;53.586;9.928;2024-01-30T12:04:17;167.77;;;24.17;;
5612;SDS011;63463;53.586;9.928;2024-01-30T12:06:43;175.17;;;24.33;;
5612;SDS011;63463;53.586;9.928;2024-01-30T12:09:09;165.70;;;23.40;;
5612;SDS011;63463;53.586;9.928;2024-01-30T12:11:47;166.93;;;23.00;;
5612;SDS011;63463;53.586;9.928;2024-01-30T12:14:17;166.37;;;24.60;;
5612;SDS011;63463;53.586;9.928;2024-01-30T12:16:47;169.77;;;24.10;;
5612;SDS011;63463;53.586;9.928;2024-01-30T12:19:24;169.17;;;24.57;;
5612;SDS011;63463;53.586;9.928;2024-01-30T12:21:56;166.97;;;23.57;;
5612;SDS011;63463;53.586;9.928;2024-01-30T12:24:24;169.80;;;24.03;;
5612;SDS011;63463;53.586;9.928;2024-01-30T12:26:50;172.70;;;24.30;;
5612;SDS011;63463;53.586;9.928;2024-01-30T12:29:17;174.27;;;24.00;;
5612;SDS011;63463;53.586;9.928;2024-01-30T12:31:43;168.63;;;22.60;;
5612;SDS011;63463;53.586;9.928;2024-01-30T12:34:09;168.57;;;24.20;;
5612;SDS011;63463;53.586;9.928;2024-01-30T12:36:35;180.90;;;23.80;;
5612;SDS011;63463;53.586;9.928;2024-01-30T12:39:01;173.70;;;24.50;;
5612;SDS011;63463;53.586;9.928;2024-01-30T12:41:27;172.00;;;23.87;;
5612;SDS011;63463;53.586;9.928;2024-01-30T12:43:54;169.90;;;23.07;;
5612;SDS011;63463;53.586;9.928;2024-01-30T12:46:20;168.27;;;23.07;;
5612;SDS011;63463;53.586;9.928;2024-01-30T12:48:46;166.17;;;23.03;;
5612;SDS011;63463;53.586;9.928;2024-01-30T12:51:12;169.40;;;23.87;;
5612;SDS011;63463;53.586;9.928;2024-01-30T12:53:38;164.87;;;24.00;;
5612;SDS011;63463;53.586;9.928;2024-01-30T12:56:04;165.23;;;21.83;;
5612;SDS011;63463;53.586;9.928;2024-01-30T12:58:30;164.27;;;23.60;;
5612;SDS011;63463;53.586;9.928;2024-01-30T13:00:56;161.83;;;22.07;;
5612;SDS011;63463;53.586;9.928;2024-01-30T13:03:22;168.10;;;22.67;;
5612;SDS011;63463;53.586;9.928;2024-01-30T13:05:48;165.10;;;22.83;;
5612;SDS011;63463;53.586;9.928;2024-01-30T13:08:14;165.87;;;23.13;;
5612;SDS011;63463;53.586;9.928;2024-01-30T13:10:40;161.33;;;21.43;;
5612;SDS011;63463;53.586;9.928;2024-01-30T13:13:05;166.53;;;23.40;;
5612;SDS011;63463;53.586;9.928;2024-01-30T13:15:31;164.37;;;23.33;;
5612;SDS011;63463;53.586;9.928;2024-01-30T13:18:00;163.27;;;22.73;;
5612;SDS011;63463;53.586;9.928;2024-01-30T13:20:27;171.00;;;24.13;;
5612;SDS011;63463;53.586;9.928;2024-01-30T13:22:53;164.67;;;23.57;;
5612;SDS011;63463;53.586;9.928;2024-01-30T13:25:19;174.20;;;25.40;;
5612;SDS011;63463;53.586;9.928;2024-01-30T13:27:45;172.37;;;24.97;;
5612;SDS011;63463;53.586;9.928;2024-01-30T13:30:11;169.07;;;25.03;;
5612;SDS011;63463;53.586;9.928;2024-01-30T13:32:37;173.37;;;25.40;;
5612;SDS011;63463;53.586;9.928;2024-01-30T13:35:03;169.63;;;25.37;;
5612;SDS011;63463;53.586;9.928;2024-01-30T13:37:29;168.40;;;24.67;;
5612;SDS011;63463;53.586;9.928;2024-01-30T13:39:55;168.43;;;25.97;;
5612;SDS011;63463;53.586;9.928;2024-01-30T13:42:21;169.20;;;24.97;;
5612;SDS011;63463;53.586;9.928;2024-01-30T13:44:48;171.13;;;25.57;;
5612;SDS011;63463;53.586;9.928;2024-01-30T13:47:14;174.77;;;27.77;;
5612;SDS011;63463;53.586;9.928;2024-01-30T13:49:40;173.33;;;26.70;;
5612;SDS011;63463;53.586;9.928;2024-01-30T13:52:06;183.70;;;27.80;;
5612;SDS011;63463;53.586;9.928;2024-01-30T13:54:33;175.83;;;28.27;;
5612;SDS011;63463;53.586;9.928;2024-01-30T13:56:59;177.63;;;26.90;;
5612;SDS011;63463;53.586;9.928;2024-01-30T13:59:25;178.37;;;29.07;;
5612;SDS011;63463;53.586;9.928;2024-01-30T14:01:51;175.40;;;27.47;;
5612;SDS011;63463;53.586;9.928;2024-01-30T14:04:17;173.27;;;27.83;;
5612;SDS011;63463;53.586;9.928;2024-01-30T14:06:43;187.70;;;31.47;;
5612;SDS011;63463;53.586;9.928;2024-01-30T14:09:09;174.63;;;29.27;;
5612;SDS011;63463;53.586;9.928;2024-01-30T14:11:36;176.87;;;28.77;;
5612;SDS011;63463;53.586;9.928;2024-01-30T14:14:01;172.07;;;26.40;;
5612;SDS011;63463;53.586;9.928;2024-01-30T14:16:27;173.43;;;28.77;;
5612;SDS011;63463;53.586;9.928;2024-01-30T14:18:53;182.57;;;27.77;;
5612;SDS011;63463;53.586;9.928;2024-01-30T14:21:19;176.57;;;27.57;;